sensor_id;sensor_type;location;lat;lon;timestamp;P1;durP1;ratioP1;P2;durP2;ratioP2
7247;SDS011;3665;51.034;13.642;2023-04-25T00:13:17;4.03;;;3.37;;
7247;SDS011;3665;51.034;13.642;2023-04-25T00:18:05;3.40;;;3.03;;
7247;SDS011;3665;51.034;13.642;2023-04-25T00:22:51;4.30;;;3.90;;
7247;SDS011;3665;51.034;13.642;2023-04-25T00:27:39;3.90;;;3.50;;
7247;SDS011;3665;51.034;13.642;2023-04-25T00:32:31;5.57;;;3.80;;
7247;SDS011;3665;51.034;13.642;2023-04-25T00:37:15;5.50;;;3.97;;
7247;SDS011;3665;51.034;13.642;2023-04-25T00:42:03;3.70;;;3.40;;
7247;SDS011;3665;51.034;13.642;2023-04-25T00:46:51;6.13;;;4.13;;
7247;SDS011;3665;51.034;13.642;2023-04-25T00:51:40;4.70;;;4.30;;
7247;SDS011;3665;51.034;13.642;2023-04-25T00:56:35;6.03;;;4.67;;
7247;SDS011;3665;51.034;13.642;2023-04-25T01:01:30;5.90;;;4.53;;
7247;SDS011;3665;51.034;13.642;2023-04-25T01:11:39;5.90;;;4.30;;
7247;SDS011;3665;51.034;13.642;2023-04-25T01:16:27;6.33;;;5.10;;
7247;SDS011;3665;51.034;13.642;2023-04-25T01:21:16;5.50;;;4.73;;
7247;SDS011;3665;51.034;13.642;2023-04-25T01:26:02;6.57;;;4.90;;
7247;SDS011;3665;51.034;13.642;2023-04-25T01:30:50;5.97;;;4.50;;
7247;SDS011;3665;51.034;13.642;2023-04-25T01:35:40;6.03;;;5.43;;
7247;SDS011;3665;51.034;13.642;2023-04-25T01:45:32;6.77;;;4.43;;
7247;SDS011;3665;51.034;13.642;2023-04-25T01:50:18;7.43;;;4.97;;
7247;SDS011;3665;51.034;13.642;2023-04-25T01:55:06;5.60;;;5.00;;
7247;SDS011;3665;51.034;13.642;2023-04-25T01:59:57;5.40;;;4.77;;
7247;SDS011;3665;51.034;13.642;2023-04-25T02:04:59;6.07;;;4.47;;
7247;SDS011;3665;51.034;13.642;2023-04-25T02:25:47;5.23;;;4.70;;
7247;SDS011;3665;51.034;13.642;2023-04-25T02:48:44;6.37;;;4.83;;
7247;SDS011;3665;51.034;13.642;2023-04-25T02:53:30;9.87;;;5.40;;
7247;SDS011;3665;51.034;13.642;2023-04-25T02:58:23;8.40;;;5.40;;
7247;SDS011;3665;51.034;13.642;2023-04-25T03:03:08;6.47;;;4.97;;
7247;SDS011;3665;51.034;13.642;2023-04-25T03:07:57;6.90;;;5.40;;
7247;SDS011;3665;51.034;13.642;2023-04-25T03:12:42;6.37;;;5.40;;
7247;SDS011;3665;51.034;13.642;2023-04-25T03:17:32;6.10;;;5.13;;
7247;SDS011;3665;51.034;13.642;2023-04-25T03:22:35;7.37;;;5.30;;
7247;SDS011;3665;51.034;13.642;2023-04-25T03:27:26;8.53;;;5.67;;
7247;SDS011;3665;51.034;13.642;2023-04-25T03:32:12;6.90;;;5.50;;
7247;SDS011;3665;51.034;13.642;2023-04-25T03:36:59;9.17;;;5.90;;
7247;SDS011;3665;51.034;13.642;2023-04-25T03:41:47;7.37;;;6.27;;
7247;SDS011;3665;51.034;13.642;2023-04-25T03:46:36;9.60;;;6.27;;
7247;SDS011;3665;51.034;13.642;2023-04-25T03:56:42;8.80;;;6.37;;
7247;SDS011;3665;51.034;13.642;2023-04-25T04:01:33;8.07;;;6.30;;
7247;SDS011;3665;51.034;13.642;2023-04-25T04:06:20;9.83;;;6.70;;
7247;SDS011;3665;51.034;13.642;2023-04-25T04:11:22;8.10;;;7.03;;
7247;SDS011;3665;51.034;13.642;2023-04-25T04:21:15;7.80;;;7.00;;
7247;SDS011;3665;51.034;13.642;2023-04-25T04:26:10;8.17;;;7.37;;
7247;SDS011;3665;51.034;13.642;2023-04-25T04:31:16;9.50;;;7.50;;
7247;SDS011;3665;51.034;13.642;2023-04-25T04:36:13;8.23;;;6.23;;
7247;SDS011;3665;51.034;13.642;2023-04-25T04:40:58;7.80;;;6.83;;
7247;SDS011;3665;51.034;13.642;2023-04-25T04:46:12;7.13;;;5.77;;
7247;SDS011;3665;51.034;13.642;2023-04-25T04:51:39;7.40;;;5.80;;
7247;SDS011;3665;51.034;13.642;2023-04-25T04:56:45;8.47;;;6.13;;
7247;SDS011;3665;51.034;13.642;2023-04-25T05:01:40;7.33;;;5.77;;
7247;SDS011;3665;51.034;13.642;2023-04-25T05:12:12;6.37;;;5.60;;
7247;SDS011;3665;51.034;13.642;2023-04-25T05:17:24;7.43;;;5.67;;
7247;SDS011;3665;51.034;13.642;2023-04-25T05:22:43;6.17;;;5.10;;
7247;SDS011;3665;51.034;13.642;2023-04-25T05:27:47;8.53;;;4.73;;
7247;SDS011;3665;51.034;13.642;2023-04-25T05:33:00;7.20;;;4.80;;
7247;SDS011;3665;51.034;13.642;2023-04-25T05:37:47;5.37;;;4.53;;
7247;SDS011;3665;51.034;13.642;2023-04-25T05:42:44;6.03;;;4.63;;
7247;SDS011;3665;51.034;13.642;2023-04-25T05:48:13;7.57;;;4.53;;
7247;SDS011;3665;51.034;13.642;2023-04-25T05:53:23;5.00;;;4.37;;
7247;SDS011;3665;51.034;13.642;2023-04-25T05:58:18;7.97;;;4.83;;
7247;SDS011;3665;51.034;13.642;2023-04-25T06:08:11;9.33;;;5.37;;
7247;SDS011;3665;51.034;13.642;2023-04-25T06:13:00;6.90;;;5.03;;
7247;SDS011;3665;51.034;13.642;2023-04-25T06:17:47;8.63;;;5.57;;
7247;SDS011;3665;51.034;13.642;2023-04-25T06:27:55;7.23;;;5.80;;
7247;SDS011;3665;51.034;13.642;2023-04-25T06:32:45;8.27;;;5.80;;
7247;SDS011;3665;51.034;13.642;2023-04-25T06:37:31;5.87;;;5.27;;
7247;SDS011;3665;51.034;13.642;2023-04-25T06:42:40;8.97;;;6.10;;
7247;SDS011;3665;51.034;13.642;2023-04-25T06:47:57;9.90;;;6.90;;
7247;SDS011;3665;51.034;13.642;2023-04-25T06:52:42;7.40;;;6.03;;
7247;SDS011;3665;51.034;13.642;2023-04-25T06:57:32;8.47;;;5.80;;
7247;SDS011;3665;51.034;13.642;2023-04-25T07:02:37;7.40;;;6.70;;
7247;SDS011;3665;51.034;13.642;2023-04-25T07:07:23;8.17;;;5.90;;
7247;SDS011;3665;51.034;13.642;2023-04-25T07:12:11;7.77;;;5.83;;
7247;SDS011;3665;51.034;13.642;2023-04-25T07:16:59;8.47;;;5.33;;
7247;SDS011;3665;51.034;13.642;2023-04-25T07:21:47;7.47;;;4.70;;
7247;SDS011;3665;51.034;13.642;2023-04-25T07:26:35;5.97;;;4.50;;
7247;SDS011;3665;51.034;13.642;2023-04-25T07:31:48;5.33;;;4.30;;
7247;SDS011;3665;51.034;13.642;2023-04-25T07:36:46;7.00;;;4.07;;
7247;SDS011;3665;51.034;13.642;2023-04-25T07:41:33;5.63;;;3.93;;
7247;SDS011;3665;51.034;13.642;2023-04-25T07:46:18;6.80;;;3.97;;
7247;SDS011;3665;51.034;13.642;2023-04-25T07:51:11;4.50;;;3.53;;
7247;SDS011;3665;51.034;13.642;2023-04-25T07:55:57;5.23;;;3.27;;
7247;SDS011;3665;51.034;13.642;2023-04-25T08:00:44;5.63;;;4.07;;
7247;SDS011;3665;51.034;13.642;2023-04-25T08:05:56;5.33;;;3.70;;
7247;SDS011;3665;51.034;13.642;2023-04-25T08:11:09;5.37;;;3.87;;
7247;SDS011;3665;51.034;13.642;2023-04-25T08:15:54;3.37;;;3.07;;
7247;SDS011;3665;51.034;13.642;2023-04-25T08:20:44;6.77;;;3.57;;
7247;SDS011;3665;51.034;13.642;2023-04-25T08:25:31;5.60;;;3.60;;
7247;SDS011;3665;51.034;13.642;2023-04-25T08:30:28;3.13;;;2.90;;
7247;SDS011;3665;51.034;13.642;2023-04-25T08:35:33;6.17;;;3.07;;
7247;SDS011;3665;51.034;13.642;2023-04-25T08:40:29;5.47;;;2.80;;
7247;SDS011;3665;51.034;13.642;2023-04-25T08:45:32;4.50;;;3.30;;
7247;SDS011;3665;51.034;13.642;2023-04-25T08:50:21;6.13;;;4.27;;
7247;SDS011;3665;51.034;13.642;2023-04-25T08:55:09;6.33;;;3.97;;
7247;SDS011;3665;51.034;13.642;2023-04-25T08:59:56;5.53;;;3.87;;
7247;SDS011;3665;51.034;13.642;2023-04-25T09:04:46;4.23;;;3.10;;
7247;SDS011;3665;51.034;13.642;2023-04-25T09:09:32;5.93;;;3.90;;
7247;SDS011;3665;51.034;13.642;2023-04-25T09:14:21;7.13;;;5.23;;
7247;SDS011;3665;51.034;13.642;2023-04-25T09:19:23;5.93;;;4.77;;
7247;SDS011;3665;51.034;13.642;2023-04-25T09:24:35;4.83;;;4.30;;
7247;SDS011;3665;51.034;13.642;2023-04-25T09:29:31;5.03;;;4.53;;
7247;SDS011;3665;51.034;13.642;2023-04-25T09:34:37;9.47;;;5.03;;
7247;SDS011;3665;51.034;13.642;2023-04-25T09:39:23;6.03;;;5.03;;
7247;SDS011;3665;51.034;13.642;2023-04-25T09:44:29;6.67;;;5.00;;
7247;SDS011;3665;51.034;13.642;2023-04-25T09:49:17;5.37;;;4.20;;
7247;SDS011;3665;51.034;13.642;2023-04-25T09:54:36;4.90;;;4.50;;
7247;SDS011;3665;51.034;13.642;2023-04-25T09:59:42;6.00;;;4.33;;
7247;SDS011;3665;51.034;13.642;2023-04-25T10:04:27;5.77;;;4.53;;
7247;SDS011;3665;51.034;13.642;2023-04-25T10:09:36;4.37;;;3.93;;
7247;SDS011;3665;51.034;13.642;2023-04-25T10:14:21;5.37;;;4.10;;
7247;SDS011;3665;51.034;13.642;2023-04-25T10:19:10;4.17;;;3.77;;
7247;SDS011;3665;51.034;13.642;2023-04-25T10:23:54;6.70;;;4.80;;
7247;SDS011;3665;51.034;13.642;2023-04-25T10:33:47;5.67;;;4.80;;
7247;SDS011;3665;51.034;13.642;2023-04-25T10:38:35;5.07;;;4.37;;
7247;SDS011;3665;51.034;13.642;2023-04-25T10:43:40;6.23;;;4.73;;
7247;SDS011;3665;51.034;13.642;2023-04-25T10:48:28;5.93;;;4.87;;
7247;SDS011;3665;51.034;13.642;2023-04-25T10:53:16;8.63;;;5.70;;
7247;SDS011;3665;51.034;13.642;2023-04-25T10:58:07;7.77;;;5.70;;
7247;SDS011;3665;51.034;13.642;2023-04-25T11:02:57;6.77;;;6.07;;
7247;SDS011;3665;51.034;13.642;2023-04-25T11:07:49;9.27;;;6.03;;
7247;SDS011;3665;51.034;13.642;2023-04-25T11:12:51;6.57;;;5.77;;
7247;SDS011;3665;51.034;13.642;2023-04-25T11:17:50;7.20;;;4.60;;
7247;SDS011;3665;51.034;13.642;2023-04-25T11:22:34;7.17;;;3.30;;
7247;SDS011;3665;51.034;13.642;2023-04-25T11:27:27;4.03;;;2.87;;
7247;SDS011;3665;51.034;13.642;2023-04-25T11:32:10;6.80;;;2.90;;
7247;SDS011;3665;51.034;13.642;2023-04-25T11:36:58;4.70;;;2.93;;
7247;SDS011;3665;51.034;13.642;2023-04-25T11:41:47;5.63;;;3.07;;
7247;SDS011;3665;51.034;13.642;2023-04-25T11:46:40;3.90;;;2.40;;
7247;SDS011;3665;51.034;13.642;2023-04-25T11:51:23;6.80;;;3.17;;
7247;SDS011;3665;51.034;13.642;2023-04-25T11:56:21;5.63;;;3.10;;
7247;SDS011;3665;51.034;13.642;2023-04-25T12:01:24;5.30;;;2.90;;
7247;SDS011;3665;51.034;13.642;2023-04-25T12:06:21;6.93;;;3.20;;
7247;SDS011;3665;51.034;13.642;2023-04-25T12:11:23;6.47;;;3.10;;
7247;SDS011;3665;51.034;13.642;2023-04-25T12:16:11;5.60;;;2.90;;
7247;SDS011;3665;51.034;13.642;2023-04-25T12:20:59;8.63;;;2.83;;
7247;SDS011;3665;51.034;13.642;2023-04-25T12:25:47;8.80;;;2.70;;
7247;SDS011;3665;51.034;13.642;2023-04-25T12:35:57;5.53;;;2.80;;
7247;SDS011;3665;51.034;13.642;2023-04-25T12:40:44;6.43;;;2.03;;
7247;SDS011;3665;51.034;13.642;2023-04-25T12:45:32;7.20;;;2.53;;
7247;SDS011;3665;51.034;13.642;2023-04-25T12:55:32;7.93;;;3.53;;
7247;SDS011;3665;51.034;13.642;2023-04-25T13:00:26;9.80;;;4.23;;
7247;SDS011;3665;51.034;13.642;2023-04-25T13:05:15;7.20;;;3.53;;
7247;SDS011;3665;51.034;13.642;2023-04-25T13:10:10;7.83;;;3.57;;
7247;SDS011;3665;51.034;13.642;2023-04-25T13:15:12;10.70;;;4.00;;
7247;SDS011;3665;51.034;13.642;2023-04-25T13:19:57;11.73;;;4.73;;
7247;SDS011;3665;51.034;13.642;2023-04-25T13:24:43;8.77;;;4.47;;
7247;SDS011;3665;51.034;13.642;2023-04-25T13:29:34;10.07;;;3.40;;
7247;SDS011;3665;51.034;13.642;2023-04-25T13:34:19;9.30;;;3.27;;
7247;SDS011;3665;51.034;13.642;2023-04-25T13:39:07;9.20;;;3.40;;
7247;SDS011;3665;51.034;13.642;2023-04-25T13:44:00;6.80;;;3.30;;
7247;SDS011;3665;51.034;13.642;2023-04-25T13:48:45;8.17;;;3.93;;
7247;SDS011;3665;51.034;13.642;2023-04-25T13:53:33;8.30;;;4.20;;
7247;SDS011;3665;51.034;13.642;2023-04-25T13:58:19;7.40;;;3.80;;
7247;SDS011;3665;51.034;13.642;2023-04-25T14:03:12;11.00;;;3.33;;
7247;SDS011;3665;51.034;13.642;2023-04-25T14:07:57;7.97;;;3.20;;
7247;SDS011;3665;51.034;13.642;2023-04-25T14:12:43;7.53;;;3.70;;
7247;SDS011;3665;51.034;13.642;2023-04-25T14:17:35;12.80;;;4.63;;
7247;SDS011;3665;51.034;13.642;2023-04-25T14:22:19;7.87;;;3.73;;
7247;SDS011;3665;51.034;13.642;2023-04-25T14:27:08;12.03;;;4.13;;
7247;SDS011;3665;51.034;13.642;2023-04-25T14:31:57;10.43;;;4.10;;
7247;SDS011;3665;51.034;13.642;2023-04-25T14:36:43;8.50;;;3.93;;
7247;SDS011;3665;51.034;13.642;2023-04-25T14:41:35;7.27;;;3.37;;
7247;SDS011;3665;51.034;13.642;2023-04-25T14:46:21;8.60;;;3.67;;
7247;SDS011;3665;51.034;13.642;2023-04-25T14:51:09;8.40;;;3.87;;
7247;SDS011;3665;51.034;13.642;2023-04-25T14:55:56;7.43;;;3.23;;
7247;SDS011;3665;51.034;13.642;2023-04-25T15:00:44;7.70;;;3.27;;
7247;SDS011;3665;51.034;13.642;2023-04-25T15:10:37;5.77;;;3.30;;
7247;SDS011;3665;51.034;13.642;2023-04-25T15:15:24;10.73;;;3.63;;
7247;SDS011;3665;51.034;13.642;2023-04-25T15:20:12;8.10;;;2.83;;
7247;SDS011;3665;51.034;13.642;2023-04-25T15:25:01;10.03;;;2.60;;
7247;SDS011;3665;51.034;13.642;2023-04-25T15:29:49;9.90;;;3.13;;
7247;SDS011;3665;51.034;13.642;2023-04-25T15:34:36;3.93;;;2.10;;
7247;SDS011;3665;51.034;13.642;2023-04-25T15:39:26;5.97;;;2.20;;
7247;SDS011;3665;51.034;13.642;2023-04-25T15:44:14;3.53;;;1.70;;
7247;SDS011;3665;51.034;13.642;2023-04-25T15:49:01;7.40;;;2.20;;
7247;SDS011;3665;51.034;13.642;2023-04-25T15:53:47;7.00;;;1.77;;
7247;SDS011;3665;51.034;13.642;2023-04-25T15:58:40;7.23;;;2.70;;
7247;SDS011;3665;51.034;13.642;2023-04-25T16:03:25;6.43;;;1.90;;
7247;SDS011;3665;51.034;13.642;2023-04-25T16:08:12;5.30;;;2.13;;
7247;SDS011;3665;51.034;13.642;2023-04-25T16:12:58;8.07;;;2.37;;
7247;SDS011;3665;51.034;13.642;2023-04-25T16:17:51;5.33;;;2.00;;
7247;SDS011;3665;51.034;13.642;2023-04-25T16:22:37;9.37;;;2.90;;
7247;SDS011;3665;51.034;13.642;2023-04-25T16:27:26;4.07;;;2.33;;
7247;SDS011;3665;51.034;13.642;2023-04-25T16:32:27;4.27;;;2.10;;
7247;SDS011;3665;51.034;13.642;2023-04-25T16:37:15;6.40;;;1.90;;
7247;SDS011;3665;51.034;13.642;2023-04-25T16:42:03;4.90;;;2.23;;
7247;SDS011;3665;51.034;13.642;2023-04-25T16:46:50;4.00;;;1.60;;
7247;SDS011;3665;51.034;13.642;2023-04-25T16:51:41;2.23;;;1.70;;
7247;SDS011;3665;51.034;13.642;2023-04-25T16:56:29;4.00;;;1.50;;
7247;SDS011;3665;51.034;13.642;2023-04-25T17:01:32;4.33;;;1.80;;
7247;SDS011;3665;51.034;13.642;2023-04-25T17:06:20;5.57;;;1.83;;
7247;SDS011;3665;51.034;13.642;2023-04-25T17:11:07;4.70;;;1.77;;
7247;SDS011;3665;51.034;13.642;2023-04-25T17:15:55;3.67;;;1.50;;
7247;SDS011;3665;51.034;13.642;2023-04-25T17:20:50;4.53;;;1.57;;
7247;SDS011;3665;51.034;13.642;2023-04-25T17:25:41;3.00;;;1.50;;
7247;SDS011;3665;51.034;13.642;2023-04-25T17:30:40;6.30;;;2.20;;
7247;SDS011;3665;51.034;13.642;2023-04-25T17:35:32;3.10;;;1.63;;
7247;SDS011;3665;51.034;13.642;2023-04-25T17:40:30;2.80;;;1.60;;
7247;SDS011;3665;51.034;13.642;2023-04-25T17:45:17;4.00;;;1.40;;
7247;SDS011;3665;51.034;13.642;2023-04-25T17:50:04;5.37;;;2.17;;
7247;SDS011;3665;51.034;13.642;2023-04-25T17:54:51;4.80;;;1.73;;
7247;SDS011;3665;51.034;13.642;2023-04-25T18:05:01;5.97;;;2.10;;
7247;SDS011;3665;51.034;13.642;2023-04-25T18:10:03;4.17;;;1.97;;
7247;SDS011;3665;51.034;13.642;2023-04-25T18:14:50;7.40;;;1.90;;
7247;SDS011;3665;51.034;13.642;2023-04-25T18:25:03;4.17;;;1.60;;
7247;SDS011;3665;51.034;13.642;2023-04-25T18:35:07;4.30;;;1.60;;
7247;SDS011;3665;51.034;13.642;2023-04-25T18:39:57;6.33;;;1.80;;
7247;SDS011;3665;51.034;13.642;2023-04-25T18:45:01;4.73;;;1.60;;
7247;SDS011;3665;51.034;13.642;2023-04-25T18:50:03;3.17;;;1.90;;
7247;SDS011;3665;51.034;13.642;2023-04-25T18:54:52;3.53;;;1.67;;
7247;SDS011;3665;51.034;13.642;2023-04-25T18:59:40;4.27;;;1.90;;
7247;SDS011;3665;51.034;13.642;2023-04-25T19:04:30;7.60;;;2.10;;
7247;SDS011;3665;51.034;13.642;2023-04-25T19:10:03;2.17;;;1.50;;
7247;SDS011;3665;51.034;13.642;2023-04-25T19:14:52;4.00;;;1.80;;
7247;SDS011;3665;51.034;13.642;2023-04-25T19:25:36;4.17;;;2.77;;
7247;SDS011;3665;51.034;13.642;2023-04-25T19:35:57;3.70;;;2.50;;
7247;SDS011;3665;51.034;13.642;2023-04-25T19:40:43;5.67;;;2.50;;
7247;SDS011;3665;51.034;13.642;2023-04-25T19:45:33;4.87;;;2.23;;
7247;SDS011;3665;51.034;13.642;2023-04-25T19:50:18;5.50;;;2.20;;
7247;SDS011;3665;51.034;13.642;2023-04-25T20:00:15;3.73;;;1.97;;
7247;SDS011;3665;51.034;13.642;2023-04-25T20:05:01;6.23;;;2.40;;
7247;SDS011;3665;51.034;13.642;2023-04-25T20:09:47;6.13;;;2.37;;
7247;SDS011;3665;51.034;13.642;2023-04-25T20:14:41;5.93;;;2.00;;
7247;SDS011;3665;51.034;13.642;2023-04-25T20:19:41;6.43;;;2.63;;
7247;SDS011;3665;51.034;13.642;2023-04-25T20:24:45;5.80;;;2.03;;
7247;SDS011;3665;51.034;13.642;2023-04-25T20:29:33;3.67;;;1.90;;
7247;SDS011;3665;51.034;13.642;2023-04-25T20:34:21;3.80;;;2.13;;
7247;SDS011;3665;51.034;13.642;2023-04-25T20:39:07;2.90;;;1.90;;
7247;SDS011;3665;51.034;13.642;2023-04-25T20:43:59;3.83;;;2.10;;
7247;SDS011;3665;51.034;13.642;2023-04-25T20:48:43;5.23;;;2.13;;
7247;SDS011;3665;51.034;13.642;2023-04-25T20:58:37;4.90;;;1.70;;
7247;SDS011;3665;51.034;13.642;2023-04-25T21:03:25;3.27;;;1.70;;
7247;SDS011;3665;51.034;13.642;2023-04-25T21:08:12;4.03;;;2.17;;
7247;SDS011;3665;51.034;13.642;2023-04-25T21:13:03;2.73;;;1.60;;
7247;SDS011;3665;51.034;13.642;2023-04-25T21:17:48;5.00;;;1.80;;
7247;SDS011;3665;51.034;13.642;2023-04-25T21:22:37;2.43;;;1.83;;
7247;SDS011;3665;51.034;13.642;2023-04-25T21:33:01;4.90;;;2.07;;
7247;SDS011;3665;51.034;13.642;2023-04-25T21:37:47;4.30;;;1.93;;
7247;SDS011;3665;51.034;13.642;2023-04-25T21:42:42;2.60;;;1.60;;
7247;SDS011;3665;51.034;13.642;2023-04-25T21:47:38;5.20;;;1.77;;
7247;SDS011;3665;51.034;13.642;2023-04-25T21:52:29;4.83;;;1.70;;
7247;SDS011;3665;51.034;13.642;2023-04-25T21:57:17;3.77;;;1.63;;
7247;SDS011;3665;51.034;13.642;2023-04-25T22:02:03;3.17;;;1.30;;
7247;SDS011;3665;51.034;13.642;2023-04-25T22:06:52;2.87;;;1.43;;
7247;SDS011;3665;51.034;13.642;2023-04-25T22:11:41;2.13;;;1.43;;
7247;SDS011;3665;51.034;13.642;2023-04-25T22:16:29;3.63;;;1.70;;
7247;SDS011;3665;51.034;13.642;2023-04-25T22:21:16;4.90;;;2.07;;
7247;SDS011;3665;51.034;13.642;2023-04-25T22:26:03;2.40;;;1.93;;
7247;SDS011;3665;51.034;13.642;2023-04-25T22:30:53;3.13;;;1.90;;
7247;SDS011;3665;51.034;13.642;2023-04-25T22:35:41;6.57;;;2.50;;
7247;SDS011;3665;51.034;13.642;2023-04-25T22:45:48;4.37;;;2.07;;
7247;SDS011;3665;51.034;13.642;2023-04-25T22:50:40;3.97;;;2.30;;
7247;SDS011;3665;51.034;13.642;2023-04-25T23:20:31;3.03;;;2.10;;
7247;SDS011;3665;51.034;13.642;2023-04-25T23:25:35;3.50;;;2.00;;
7247;SDS011;3665;51.034;13.642;2023-04-25T23:30:35;4.73;;;2.40;;
7247;SDS011;3665;51.034;13.642;2023-04-25T23:35:41;2.47;;;2.27;;
7247;SDS011;3665;51.034;13.642;2023-04-25T23:46:40;7.67;;;2.57;;
7247;SDS011;3665;51.034;13.642;2023-04-25T23:51:25;2.90;;;2.30;;
